Cactus Peak, Santa Catalina Island Weather observations

Data are for 10 minute period ending at time listed.
 Day   Time   Solar   Ave.   Ave.  Ave.  Vector    Max.   Stn.    Total
  of    of     Rad.   Air    Rel.  Wind   Wind     Wind   Baro.  Precip.
Year   Day            Temp.  Hum.  Speed  Dir.     Gust   Pres.         
2026   (PST)   W/m2    F      %     mph   deg.      mph    mb.     in.  
------------------------------------------------------------------------
 244   15:10  600.0    68   62.8    10    327.5    13.7    999.0   0.00  
 244   15:20  571.0    67   63.8    10    339.1    14.3    999.0   0.00  
 244   15:30  540.0    67   65.8    11    351.4    14.9    999.0   0.00  
 244   15:40  509.0    67   67.5    11    352.2    14.9    999.0   0.00  
 244   15:50  479.0    66   69.3    11    341.2    15.5    999.0   0.00  
 244   16:00  446.0    66   68.1    11    327.2    15.5    999.0   0.00  
 244   16:10  413.0    66   67.7    10    327.4    15.5    999.0   0.00  
 244   16:20  380.0    66   70.1    12    359.2    19.7    999.0   0.00  
 244   16:30  346.0    65   70.8    12    347.7    19.1    999.0   0.00  
 244   16:40  312.0    64   72.6    12    350.6    16.7    999.0   0.00  
 244   16:50  279.0    64   73.2    12    346.3    17.9    999.0   0.00  
 244   17:00  245.0    64   73.0    12    341.1    16.7    999.0   0.00  
 244   17:10  211.0    64   74.2    12    348.9    16.7    999.0   0.00  
 244   17:20  178.0    63   75.1    11    340.4    16.1    999.0   0.00  
 244   17:30  145.0    63   77.1    10    343.0    14.3    999.0   0.00  
 244   17:40  114.0    63   78.1    10    340.0    12.5    999.0   0.00  
 244   17:50   81.0    62   80.8    10    352.3    12.5    999.0   0.00  
 244   18:00   48.0    61   83.0    10    343.1    12.5    999.0   0.00  
 244   18:10   24.0    61   85.7    10    348.6    12.5    999.0   0.00  
 244   18:20    7.0    60   87.9    11    353.0    13.1    999.0   0.00  
 244   18:30    2.0    60   93.2    11    345.4    13.1    999.0   0.00  
 244   18:40    0.0    60   99.7    12    348.1    15.5    999.0   0.00  
 244   18:50    0.0    60   88.2    13    340.5    16.1    999.0   0.00  
 244   19:00    0.0    60   86.3    13    349.5    17.9    999.0   0.00  
 244   19:10    0.0    60   86.4    14    356.4    17.9    999.0   0.00  
 244   19:20    0.0    60   88.6    14    350.7    16.7    999.0   0.00  
 244   19:30    0.0    60   52.3    15    350.8    19.1    999.0   0.00  
 244   19:40    0.0    59   62.7    15    349.3    18.5    999.0   0.00  
 244   19:50    0.0    59   83.0    15    342.3    20.3    999.0   0.00  
 244   20:00    0.0    59   80.4    14    346.1    18.5    999.0   0.00  
 244   20:10    0.0    60   81.2    15    340.8    19.1    999.0   0.00  
 244   20:20    0.0    60   81.4    15    341.5    18.5    999.0   0.00  
 244   20:30    0.0    60   81.9    14    333.7    19.7    999.0   0.00  
 244   20:40    0.0    60   81.0    15    334.4    19.7    999.0   0.00  
 244   20:50    0.0    60   80.0    15    335.0    18.5    999.0   0.00  
 244   21:00    0.0    60   81.5    15    338.2    19.1    999.0   0.00  
 244   21:10    0.0    60   81.6    15    345.1    18.5    999.0   0.00  
 244   21:20    0.0    60   81.0    15    341.2    18.5    999.0   0.00  
 244   21:30    0.0    60   83.6    14    338.5    17.9    999.0   0.00  
 244   21:40    0.0    59   84.9    14    338.1    18.5    999.0   0.00  
 244   21:50    0.0    59   86.0    14    341.1    17.9    999.0   0.00  
 244   22:00    0.0    59   85.6    13    343.5    18.5    999.0   0.00  
 244   22:10    0.0    59   84.7    14    336.3    19.1    999.0   0.00  
 244   22:20    0.0    59   84.9    13    331.2    17.9    999.0   0.00  
 244   22:30    0.0    59   84.4    14    324.5    18.5    999.0   0.00  
 244   22:40    0.0    59   84.4    14    328.8    18.5    999.0   0.00  
 244   22:50    0.0    59   86.1    13    335.3    17.9    999.0   0.00  
 244   23:00    0.0    59   87.3    14    329.7    18.5    999.0   0.00  
 244   23:10    0.0    59   87.7    13    326.7    17.9    999.0   0.00  
 244   23:20    0.0    59   87.3    14    330.0    20.9    999.0   0.00  
 244   23:30    0.0    59   87.8    13    327.1    17.3    999.0   0.00  
 244   23:40    0.0    59   94.5    12    328.2    16.1    999.0   0.00  
 244   23:50    0.0    59    5.9    12    329.8    18.5    999.0   0.00  
 245    0:00    0.0    59    0.4    12    329.7    16.7    999.0   0.00  
 245    0:10    0.0    58   67.0    12    329.3    16.1    999.0   0.00  
 245    0:20    0.0    58   91.8    13    332.8    16.1    999.0   0.00  
 245    0:30    0.0    58   88.4    11    333.5    14.3    999.0   0.00  
 245    0:40    0.0    58   89.3     9    336.4    13.1    999.0   0.00  
 245    0:50    0.0    58   11.3     8    333.3    10.8    999.0   0.00  
 245    1:00    0.0    58    0.4    10    344.5    11.9    999.0   0.00  
 245    1:10    0.0    58    0.4    11      4.9    13.7    999.0   0.00  
 245    1:20    0.0    58    0.4    12      7.1    14.3    999.0   0.00  
 245    1:30    0.0    57    0.4    11     10.8    13.1    999.0   0.00  
 245    1:40    0.0    57    0.4    10      7.5    13.1    999.0   0.00  
 245    1:50    0.0    57    0.4     9      7.0    11.9    999.0   0.00  
 245    2:00    0.0    57    0.4     3    352.4     8.4    999.0   0.00  
 245    2:10    0.0    58    0.4     1    351.0     0.6    999.0   0.00  
 245    2:20    0.0    57    0.4     1      7.6     0.6    999.0   0.00  
 245    2:30    0.0    58    0.4     1      1.0     0.6    999.0   0.00  
 245    2:40    0.0    58    0.4     1      6.8     0.6    999.0   0.00  
 245    2:50    0.0    57    0.4     1    359.8     0.6    999.0   0.00  
 245    3:00    0.0    57    9.2     1      4.4     0.6    999.0   0.00  
 245    3:10    0.0    57   99.9     1      6.1     0.6    999.0   0.00  
 245    3:20    0.0    57   99.9     1    359.2     0.6    999.0   0.00  
 245    3:30    0.0    57   99.9     1    335.1     0.6    999.0   0.00  
 245    3:40    0.0    57   99.9     1    329.9     0.6    999.0   0.00  
 245    3:50    0.0    57   99.9     1    339.1     0.6    999.0   0.00  
 245    4:00    0.0    57   99.9     1    330.5     0.6    999.0   0.00  
 245    4:10    0.0    57   99.9     1    323.9     0.6    999.0   0.00  
 245    4:20    0.0    57   99.9     1    329.2     0.6    999.0   0.00  
 245    4:30    0.0    57   99.9     1    341.1     0.6    999.0   0.00  
 245    4:40    0.0    57   95.6     1    334.2     0.6    999.0   0.00  
 245    4:50    0.0    57   86.7     1    305.8     0.6    999.0   0.00  
 245    5:00    0.0    57   99.9     1    295.5     0.6    999.0   0.00  
 245    5:10    0.0    57   50.7     1    204.2     0.6    999.0   0.00  
 245    5:20    0.0    58    3.9     1    152.0     0.6    999.0   0.00  
 245    5:30    3.0    58   98.8     1    158.9     0.6    999.0   0.00  
 245    5:40    9.0    58   99.7     1    166.4     0.6    999.0   0.00  
 245    5:50   28.0    58   99.8     1    177.3     0.6    999.0   0.00  
 245    6:00   54.0    58   97.9     1    173.6     0.6    999.0   0.00  
 245    6:10   86.0    58   99.9     1    178.5     0.6    999.0   0.00  
 245    6:20  115.0    59   99.9     1    218.6     0.6    999.0   0.00  
 245    6:30  144.0    59   99.9     1    222.3     0.6    999.0   0.00  
 245    6:40  175.0    60   99.9     1    217.9     0.6    999.0   0.00  
 245    6:50  203.0    60   99.4     1    225.0     0.6    999.0   0.00  
 245    7:00  224.0    60   99.9     1    225.1     0.6    999.0   0.00  
 245    7:10  217.0    60   98.5     1    222.3     0.6    999.0   0.00  
 245    7:20  200.0    60   95.2     1    216.8     0.6    999.0   0.00  
 245    7:30  297.0    61   85.6     2    191.8     6.0    999.0   0.00  
 245    7:40  417.0    62   82.4     5    177.8    10.2    999.0   0.00  
 245    7:50  399.0    62   80.8     4    188.4     9.6    999.0   0.00  
 245    8:00  430.0    62   79.6     5    172.4    10.8    999.0   0.00  
 245    8:10  476.0    63   78.7     6    194.1    12.5    999.0   0.00  
 245    8:20  516.0    63   78.0     6    192.4    10.8    999.0   0.00  
 245    8:30  545.0    64   76.4     4    172.2     9.6    999.0   0.00  
 245    8:40  576.0    64   75.1     6    186.6    10.8    999.0   0.00  
 245    8:50  606.0    64   74.2     8    185.6    13.1    999.0   0.00  
 245    9:00  636.0    64   74.6     8    186.8    11.9    999.0   0.00  
 245    9:10  666.0    64   72.4     6    186.2     9.6    999.0   0.00  
 245    9:20  690.0    66   67.1     5    176.2     9.0    999.0   0.00  
 245    9:30  716.0    67   66.3     4    171.4     9.6    999.0   0.00  
 245    9:40  739.0    67   67.1     7    190.3    10.8    999.0   0.00  
 245    9:50  762.0    67   66.2     5    191.3     8.4    999.0   0.00  
 245   10:00  626.0    68   63.5     6    186.3    10.2    999.0   0.00  
 245   10:10  730.0    69   62.2     8    182.1    12.5    999.0   0.00  
 245   10:20  821.0    68   64.6     8    181.5    13.7    999.0   0.00  
 245   10:30  838.0    68   64.2     8    179.3    11.9    999.0   0.00  
 245   10:40  854.0    68   62.8     7    173.9    12.5    999.0   0.00  
 245   10:50  868.0    69   60.9     8    176.1    12.5    999.0   0.00  
 245   11:00  877.0    69   60.4     9    179.3    13.1    999.0   0.00  
 245   11:10  885.0    70   57.3     8    203.0    12.5    999.0   0.00  
 245   11:20  889.0    71   52.8     2    207.5    10.2    999.0   0.00  
 245   11:30  889.0    71   54.0     7    352.7    13.1    999.0   0.00  
 245   11:40  902.0    70   56.8     9    347.0    13.7    999.0   0.00  
 245   11:50  902.0    70   57.1    11      0.5    15.5    999.0   0.00  
 245   12:00  903.0    70   60.0    11    349.3    15.5    999.0   0.00  
 245   12:10  901.0    70   60.7    10    342.0    16.1    999.0   0.00  
 245   12:20  897.0    70   62.3    11    353.2    16.1    999.0   0.00  
 245   12:30  892.0    69   63.9    10    332.5    14.9    999.0   0.00  
 245   12:40  884.0    70   64.6    11    345.1    15.5    999.0   0.00  
 245   12:50  875.0    70   67.6    10    329.0    16.1    999.0   0.00  
 245   13:00  865.0    69   68.6    10    330.9    15.5    999.0   0.00  
 245   13:10  855.0    70   67.8    12    343.2    17.9    999.0   0.00  
 245   13:20  843.0    68   71.9    12    336.6    17.9    999.0   0.00  
 245   13:30  827.0    69   71.3    12    336.4    20.3    999.0   0.00  
 245   13:40  812.0    68   72.4    13    345.9    19.7    999.0   0.00  
 245   13:50  792.0    68   72.4    13    341.1    17.3    999.0   0.00  
 245   14:00  772.0    68   73.6    13    349.5    19.7    999.0   0.00  
 245   14:10  752.0    68   73.0    13    355.9    19.7    999.0   0.00  
 245   14:20  729.0    68   71.7    12      3.0    18.5    999.0   0.00  
 245   14:30  706.0    68   71.1    12    356.6    16.1    999.0   0.00  
 245   14:40  681.0    69   67.7    11    340.5    16.1    999.0   0.00  
 245   14:50  654.0    69   67.3    11    331.9    16.7    999.0   0.00  
 245   15:00  627.0    68   67.9    10    332.5    16.1    999.0   0.00  

Return to Cactus Peak graphs page.


Western Regional Climate Center,wrcc@dri.edu